sensor_id;sensor_type;location;lat;lon;timestamp;temperature;humidity
8595;DHT22;4335;48.860;9.198;2023-02-15T00:01:51;1.30;99.90
8595;DHT22;4335;48.860;9.198;2023-02-15T00:04:25;1.30;99.90
8595;DHT22;4335;48.860;9.198;2023-02-15T00:07:15;1.20;99.90
8595;DHT22;4335;48.860;9.198;2023-02-15T00:09:42;1.20;99.90
8595;DHT22;4335;48.860;9.198;2023-02-15T00:12:09;1.20;99.90
8595;DHT22;4335;48.860;9.198;2023-02-15T00:14:36;1.20;99.90
8595;DHT22;4335;48.860;9.198;2023-02-15T00:17:03;1.20;99.90
8595;DHT22;4335;48.860;9.198;2023-02-15T00:19:32;1.20;99.90
8595;DHT22;4335;48.860;9.198;2023-02-15T00:21:58;1.20;99.90
8595;DHT22;4335;48.860;9.198;2023-02-15T00:24:26;1.20;99.90
8595;DHT22;4335;48.860;9.198;2023-02-15T00:26:53;1.20;99.90
8595;DHT22;4335;48.860;9.198;2023-02-15T00:29:22;1.20;99.90
8595;DHT22;4335;48.860;9.198;2023-02-15T00:31:49;1.20;99.90
8595;DHT22;4335;48.860;9.198;2023-02-15T00:34:21;1.10;99.90
8595;DHT22;4335;48.860;9.198;2023-02-15T00:36:51;1.10;99.90
8595;DHT22;4335;48.860;9.198;2023-02-15T00:39:19;1.10;99.90
8595;DHT22;4335;48.860;9.198;2023-02-15T00:41:46;1.10;99.90
8595;DHT22;4335;48.860;9.198;2023-02-15T00:44:13;1.00;99.90
8595;DHT22;4335;48.860;9.198;2023-02-15T00:46:42;1.00;99.90
8595;DHT22;4335;48.860;9.198;2023-02-15T00:49:10;1.00;99.90
8595;DHT22;4335;48.860;9.198;2023-02-15T00:51:39;1.00;99.90
8595;DHT22;4335;48.860;9.198;2023-02-15T00:54:05;1.00;99.90
8595;DHT22;4335;48.860;9.198;2023-02-15T00:56:32;0.90;99.90
8595;DHT22;4335;48.860;9.198;2023-02-15T00:58:59;0.90;99.90
8595;DHT22;4335;48.860;9.198;2023-02-15T01:01:25;0.90;99.90
8595;DHT22;4335;48.860;9.198;2023-02-15T01:03:52;0.90;99.90
8595;DHT22;4335;48.860;9.198;2023-02-15T01:06:19;0.80;99.90
8595;DHT22;4335;48.860;9.198;2023-02-15T01:08:46;0.90;99.90
8595;DHT22;4335;48.860;9.198;2023-02-15T01:11:16;0.90;99.90
8595;DHT22;4335;48.860;9.198;2023-02-15T01:13:55;0.90;99.90
8595;DHT22;4335;48.860;9.198;2023-02-15T01:16:33;0.90;99.90
8595;DHT22;4335;48.860;9.198;2023-02-15T01:19:02;0.90;99.90
8595;DHT22;4335;48.860;9.198;2023-02-15T01:21:29;0.90;99.90
8595;DHT22;4335;48.860;9.198;2023-02-15T01:23:56;0.90;99.90
8595;DHT22;4335;48.860;9.198;2023-02-15T01:26:24;0.90;99.90
8595;DHT22;4335;48.860;9.198;2023-02-15T01:28:54;0.90;99.90
8595;DHT22;4335;48.860;9.198;2023-02-15T01:31:23;0.90;99.90
8595;DHT22;4335;48.860;9.198;2023-02-15T01:33:53;0.80;99.90
8595;DHT22;4335;48.860;9.198;2023-02-15T01:36:20;0.80;99.90
8595;DHT22;4335;48.860;9.198;2023-02-15T01:38:46;0.80;99.90
8595;DHT22;4335;48.860;9.198;2023-02-15T01:41:14;0.70;99.90
8595;DHT22;4335;48.860;9.198;2023-02-15T01:43:50;0.70;99.90
8595;DHT22;4335;48.860;9.198;2023-02-15T01:46:18;0.70;99.90
8595;DHT22;4335;48.860;9.198;2023-02-15T01:48:48;0.60;99.90
8595;DHT22;4335;48.860;9.198;2023-02-15T01:51:25;0.60;99.90
8595;DHT22;4335;48.860;9.198;2023-02-15T01:53:57;0.60;99.90
8595;DHT22;4335;48.860;9.198;2023-02-15T01:56:27;0.50;99.90
8595;DHT22;4335;48.860;9.198;2023-02-15T01:58:58;0.50;99.90
8595;DHT22;4335;48.860;9.198;2023-02-15T02:01:27;0.50;99.90
8595;DHT22;4335;48.860;9.198;2023-02-15T02:04:02;0.50;99.90
8595;DHT22;4335;48.860;9.198;2023-02-15T02:06:32;0.40;99.90
8595;DHT22;4335;48.860;9.198;2023-02-15T02:09:00;0.40;99.90
8595;DHT22;4335;48.860;9.198;2023-02-15T02:11:27;0.40;99.90
8595;DHT22;4335;48.860;9.198;2023-02-15T02:13:55;0.40;99.90
8595;DHT22;4335;48.860;9.198;2023-02-15T02:16:25;0.40;99.90
8595;DHT22;4335;48.860;9.198;2023-02-15T02:19:13;0.40;99.90
8595;DHT22;4335;48.860;9.198;2023-02-15T02:22:23;0.30;99.90
8595;DHT22;4335;48.860;9.198;2023-02-15T02:25:15;0.40;99.90
8595;DHT22;4335;48.860;9.198;2023-02-15T02:27:50;0.30;99.90
8595;DHT22;4335;48.860;9.198;2023-02-15T02:30:50;0.30;99.90
8595;DHT22;4335;48.860;9.198;2023-02-15T02:33:38;0.40;99.90
8595;DHT22;4335;48.860;9.198;2023-02-15T02:36:19;0.30;99.90
8595;DHT22;4335;48.860;9.198;2023-02-15T02:39:06;0.20;99.90
8595;DHT22;4335;48.860;9.198;2023-02-15T02:41:38;0.20;99.90
8595;DHT22;4335;48.860;9.198;2023-02-15T02:44:16;0.20;99.90
8595;DHT22;4335;48.860;9.198;2023-02-15T02:46:50;0.20;99.90
8595;DHT22;4335;48.860;9.198;2023-02-15T02:49:30;0.20;99.90
8595;DHT22;4335;48.860;9.198;2023-02-15T02:52:01;0.20;99.90
8595;DHT22;4335;48.860;9.198;2023-02-15T02:54:31;0.20;99.90
8595;DHT22;4335;48.860;9.198;2023-02-15T02:57:03;0.20;99.90
8595;DHT22;4335;48.860;9.198;2023-02-15T02:59:32;0.20;99.90
8595;DHT22;4335;48.860;9.198;2023-02-15T03:02:03;0.10;99.90
8595;DHT22;4335;48.860;9.198;2023-02-15T03:04:36;0.10;99.90
8595;DHT22;4335;48.860;9.198;2023-02-15T03:07:06;0.10;99.90
8595;DHT22;4335;48.860;9.198;2023-02-15T03:09:36;0.10;99.90
8595;DHT22;4335;48.860;9.198;2023-02-15T03:12:11;0.10;99.90
8595;DHT22;4335;48.860;9.198;2023-02-15T03:14:40;0.10;99.90
8595;DHT22;4335;48.860;9.198;2023-02-15T03:17:09;0.10;99.90
8595;DHT22;4335;48.860;9.198;2023-02-15T03:19:39;0.00;99.90
8595;DHT22;4335;48.860;9.198;2023-02-15T03:22:10;0.00;99.90
8595;DHT22;4335;48.860;9.198;2023-02-15T03:24:43;0.10;99.90
8595;DHT22;4335;48.860;9.198;2023-02-15T03:27:13;0.10;99.90
8595;DHT22;4335;48.860;9.198;2023-02-15T03:29:44;0.10;99.90
8595;DHT22;4335;48.860;9.198;2023-02-15T03:32:14;0.10;99.90
8595;DHT22;4335;48.860;9.198;2023-02-15T03:34:42;0.10;99.90
8595;DHT22;4335;48.860;9.198;2023-02-15T03:37:13;0.00;99.90
8595;DHT22;4335;48.860;9.198;2023-02-15T03:39:47;0.00;99.90
8595;DHT22;4335;48.860;9.198;2023-02-15T03:42:18;0.00;99.90
8595;DHT22;4335;48.860;9.198;2023-02-15T03:44:50;0.00;99.90
8595;DHT22;4335;48.860;9.198;2023-02-15T03:47:20;0.00;99.90
8595;DHT22;4335;48.860;9.198;2023-02-15T03:49:52;0.00;99.90
8595;DHT22;4335;48.860;9.198;2023-02-15T03:52:21;0.00;99.90
8595;DHT22;4335;48.860;9.198;2023-02-15T03:54:49;0.00;99.90
8595;DHT22;4335;48.860;9.198;2023-02-15T03:57:21;0.00;99.90
8595;DHT22;4335;48.860;9.198;2023-02-15T04:00:15;0.00;99.90
8595;DHT22;4335;48.860;9.198;2023-02-15T04:03:17;0.00;99.90
8595;DHT22;4335;48.860;9.198;2023-02-15T04:05:50;0.00;99.90
8595;DHT22;4335;48.860;9.198;2023-02-15T04:08:17;0.00;99.90
8595;DHT22;4335;48.860;9.198;2023-02-15T04:10:44;-0.10;99.90
8595;DHT22;4335;48.860;9.198;2023-02-15T04:13:31;-0.10;99.90
8595;DHT22;4335;48.860;9.198;2023-02-15T04:15:58;-0.20;99.90
8595;DHT22;4335;48.860;9.198;2023-02-15T04:18:35;-0.20;99.90
8595;DHT22;4335;48.860;9.198;2023-02-15T04:21:22;-0.20;99.90
8595;DHT22;4335;48.860;9.198;2023-02-15T04:24:11;-0.20;99.90
8595;DHT22;4335;48.860;9.198;2023-02-15T04:26:55;-0.20;99.90
8595;DHT22;4335;48.860;9.198;2023-02-15T04:29:23;-0.20;99.90
8595;DHT22;4335;48.860;9.198;2023-02-15T04:31:51;-0.30;99.90
8595;DHT22;4335;48.860;9.198;2023-02-15T04:34:18;-0.30;99.90
8595;DHT22;4335;48.860;9.198;2023-02-15T04:36:45;-0.20;99.90
8595;DHT22;4335;48.860;9.198;2023-02-15T04:39:13;-0.30;99.90
8595;DHT22;4335;48.860;9.198;2023-02-15T04:41:40;-0.30;99.90
8595;DHT22;4335;48.860;9.198;2023-02-15T04:44:11;-0.30;99.90
8595;DHT22;4335;48.860;9.198;2023-02-15T04:46:37;-0.30;99.90
8595;DHT22;4335;48.860;9.198;2023-02-15T04:49:04;-0.30;99.90
8595;DHT22;4335;48.860;9.198;2023-02-15T04:51:31;-0.20;99.90
8595;DHT22;4335;48.860;9.198;2023-02-15T04:53:58;-0.20;99.90
8595;DHT22;4335;48.860;9.198;2023-02-15T04:56:25;-0.20;99.90
8595;DHT22;4335;48.860;9.198;2023-02-15T04:58:51;-0.30;99.90
8595;DHT22;4335;48.860;9.198;2023-02-15T05:01:18;-0.30;99.90
8595;DHT22;4335;48.860;9.198;2023-02-15T05:03:45;-0.30;99.90
8595;DHT22;4335;48.860;9.198;2023-02-15T05:06:11;-0.40;99.90
8595;DHT22;4335;48.860;9.198;2023-02-15T05:08:44;-0.40;99.90
8595;DHT22;4335;48.860;9.198;2023-02-15T05:11:11;-0.40;99.90
8595;DHT22;4335;48.860;9.198;2023-02-15T05:13:38;-0.50;99.90
8595;DHT22;4335;48.860;9.198;2023-02-15T05:16:08;-0.50;99.90
8595;DHT22;4335;48.860;9.198;2023-02-15T05:18:34;-0.60;99.90
8595;DHT22;4335;48.860;9.198;2023-02-15T05:21:04;-0.50;99.90
8595;DHT22;4335;48.860;9.198;2023-02-15T05:23:31;-0.60;99.90
8595;DHT22;4335;48.860;9.198;2023-02-15T05:25:57;-0.60;99.90
8595;DHT22;4335;48.860;9.198;2023-02-15T05:28:43;-0.60;99.90
8595;DHT22;4335;48.860;9.198;2023-02-15T05:31:14;-0.60;99.90
8595;DHT22;4335;48.860;9.198;2023-02-15T05:33:44;-0.60;99.90
8595;DHT22;4335;48.860;9.198;2023-02-15T05:36:11;-0.60;99.90
8595;DHT22;4335;48.860;9.198;2023-02-15T05:38:40;-0.60;99.90
8595;DHT22;4335;48.860;9.198;2023-02-15T05:41:09;-0.70;99.90
8595;DHT22;4335;48.860;9.198;2023-02-15T05:43:36;-0.60;99.90
8595;DHT22;4335;48.860;9.198;2023-02-15T05:46:10;-0.70;99.90
8595;DHT22;4335;48.860;9.198;2023-02-15T05:48:37;-0.70;99.90
8595;DHT22;4335;48.860;9.198;2023-02-15T05:51:06;-0.70;99.90
8595;DHT22;4335;48.860;9.198;2023-02-15T05:53:34;-0.70;99.90
8595;DHT22;4335;48.860;9.198;2023-02-15T05:56:02;-0.70;99.90
8595;DHT22;4335;48.860;9.198;2023-02-15T05:58:30;-0.60;99.90
8595;DHT22;4335;48.860;9.198;2023-02-15T06:00:58;-0.70;99.90
8595;DHT22;4335;48.860;9.198;2023-02-15T06:03:25;-0.70;99.90
8595;DHT22;4335;48.860;9.198;2023-02-15T06:05:54;-0.60;99.90
8595;DHT22;4335;48.860;9.198;2023-02-15T06:08:23;-0.60;99.90
8595;DHT22;4335;48.860;9.198;2023-02-15T06:10:53;-0.60;99.90
8595;DHT22;4335;48.860;9.198;2023-02-15T06:13:19;-0.60;99.90
8595;DHT22;4335;48.860;9.198;2023-02-15T06:15:46;-0.70;99.90
8595;DHT22;4335;48.860;9.198;2023-02-15T06:18:12;-0.70;99.90
8595;DHT22;4335;48.860;9.198;2023-02-15T06:20:40;-0.70;99.90
8595;DHT22;4335;48.860;9.198;2023-02-15T06:23:09;-0.70;99.90
8595;DHT22;4335;48.860;9.198;2023-02-15T06:25:36;-0.60;99.90
8595;DHT22;4335;48.860;9.198;2023-02-15T06:28:03;-0.70;99.90
8595;DHT22;4335;48.860;9.198;2023-02-15T06:30:35;-0.70;99.90
8595;DHT22;4335;48.860;9.198;2023-02-15T06:33:02;-0.70;99.90
8595;DHT22;4335;48.860;9.198;2023-02-15T06:35:39;-0.60;99.90
8595;DHT22;4335;48.860;9.198;2023-02-15T06:38:05;-0.60;99.90
8595;DHT22;4335;48.860;9.198;2023-02-15T06:40:38;-0.60;99.90
8595;DHT22;4335;48.860;9.198;2023-02-15T06:43:08;-0.60;99.90
8595;DHT22;4335;48.860;9.198;2023-02-15T06:45:43;-0.60;99.90
8595;DHT22;4335;48.860;9.198;2023-02-15T06:48:09;-0.60;99.90
8595;DHT22;4335;48.860;9.198;2023-02-15T06:50:40;-0.60;99.90
8595;DHT22;4335;48.860;9.198;2023-02-15T06:53:07;-0.60;99.90
8595;DHT22;4335;48.860;9.198;2023-02-15T06:55:33;-0.60;99.90
8595;DHT22;4335;48.860;9.198;2023-02-15T06:58:00;-0.60;99.90
8595;DHT22;4335;48.860;9.198;2023-02-15T07:00:30;-0.60;99.90
8595;DHT22;4335;48.860;9.198;2023-02-15T07:03:08;-0.60;99.90
8595;DHT22;4335;48.860;9.198;2023-02-15T07:05:35;-0.60;99.90
8595;DHT22;4335;48.860;9.198;2023-02-15T07:08:05;-0.60;99.90
8595;DHT22;4335;48.860;9.198;2023-02-15T07:10:34;-0.60;99.90
8595;DHT22;4335;48.860;9.198;2023-02-15T07:13:01;-0.50;99.90
8595;DHT22;4335;48.860;9.198;2023-02-15T07:15:27;-0.50;99.90
8595;DHT22;4335;48.860;9.198;2023-02-15T07:17:54;-0.50;99.90
8595;DHT22;4335;48.860;9.198;2023-02-15T07:20:22;-0.50;99.90
8595;DHT22;4335;48.860;9.198;2023-02-15T07:22:49;-0.50;99.90
8595;DHT22;4335;48.860;9.198;2023-02-15T07:25:18;-0.40;99.90
8595;DHT22;4335;48.860;9.198;2023-02-15T07:27:45;-0.40;99.90
8595;DHT22;4335;48.860;9.198;2023-02-15T07:30:16;-0.40;99.90
8595;DHT22;4335;48.860;9.198;2023-02-15T07:32:43;-0.40;99.90
8595;DHT22;4335;48.860;9.198;2023-02-15T07:35:24;-0.40;99.90
8595;DHT22;4335;48.860;9.198;2023-02-15T07:37:56;-0.20;99.90
8595;DHT22;4335;48.860;9.198;2023-02-15T07:40:29;-0.20;99.90
8595;DHT22;4335;48.860;9.198;2023-02-15T07:42:58;-0.10;99.90
8595;DHT22;4335;48.860;9.198;2023-02-15T07:45:25;0.00;99.90
8595;DHT22;4335;48.860;9.198;2023-02-15T07:47:52;0.10;99.90
8595;DHT22;4335;48.860;9.198;2023-02-15T07:50:22;0.20;99.90
8595;DHT22;4335;48.860;9.198;2023-02-15T07:52:55;0.20;99.90
8595;DHT22;4335;48.860;9.198;2023-02-15T07:55:22;0.30;99.90
8595;DHT22;4335;48.860;9.198;2023-02-15T07:57:50;0.30;99.90
8595;DHT22;4335;48.860;9.198;2023-02-15T08:00:19;0.40;99.90
8595;DHT22;4335;48.860;9.198;2023-02-15T08:02:53;0.50;99.90
8595;DHT22;4335;48.860;9.198;2023-02-15T08:05:35;0.60;99.90
8595;DHT22;4335;48.860;9.198;2023-02-15T08:08:01;0.70;99.90
8595;DHT22;4335;48.860;9.198;2023-02-15T08:10:28;0.80;99.90
8595;DHT22;4335;48.860;9.198;2023-02-15T08:13:10;0.90;99.90
8595;DHT22;4335;48.860;9.198;2023-02-15T08:15:39;1.00;99.90
8595;DHT22;4335;48.860;9.198;2023-02-15T08:18:06;1.00;99.90
8595;DHT22;4335;48.860;9.198;2023-02-15T08:20:34;1.00;99.90
8595;DHT22;4335;48.860;9.198;2023-02-15T08:23:01;1.10;99.90
8595;DHT22;4335;48.860;9.198;2023-02-15T08:25:30;1.20;99.90
8595;DHT22;4335;48.860;9.198;2023-02-15T08:27:57;1.20;99.90
8595;DHT22;4335;48.860;9.198;2023-02-15T08:30:25;1.20;99.90
8595;DHT22;4335;48.860;9.198;2023-02-15T08:32:51;1.30;99.90
8595;DHT22;4335;48.860;9.198;2023-02-15T08:35:18;1.40;99.90
8595;DHT22;4335;48.860;9.198;2023-02-15T08:37:48;1.40;99.90
8595;DHT22;4335;48.860;9.198;2023-02-15T08:40:17;1.50;99.90
8595;DHT22;4335;48.860;9.198;2023-02-15T08:42:44;1.60;99.90
8595;DHT22;4335;48.860;9.198;2023-02-15T08:45:11;1.70;99.90
8595;DHT22;4335;48.860;9.198;2023-02-15T08:47:38;1.80;99.90
8595;DHT22;4335;48.860;9.198;2023-02-15T08:50:08;1.90;99.90
8595;DHT22;4335;48.860;9.198;2023-02-15T08:52:35;2.10;99.90
8595;DHT22;4335;48.860;9.198;2023-02-15T08:55:02;2.40;99.90
8595;DHT22;4335;48.860;9.198;2023-02-15T08:57:31;2.40;99.90
8595;DHT22;4335;48.860;9.198;2023-02-15T08:59:58;2.60;99.90
8595;DHT22;4335;48.860;9.198;2023-02-15T09:02:25;2.50;99.90
8595;DHT22;4335;48.860;9.198;2023-02-15T09:05:05;2.60;99.90
8595;DHT22;4335;48.860;9.198;2023-02-15T09:07:35;2.80;99.90
8595;DHT22;4335;48.860;9.198;2023-02-15T09:10:02;3.00;99.90
8595;DHT22;4335;48.860;9.198;2023-02-15T09:12:28;3.10;99.90
8595;DHT22;4335;48.860;9.198;2023-02-15T09:14:58;3.20;99.90
8595;DHT22;4335;48.860;9.198;2023-02-15T09:17:25;3.20;99.90
8595;DHT22;4335;48.860;9.198;2023-02-15T09:19:52;3.30;99.90
8595;DHT22;4335;48.860;9.198;2023-02-15T09:22:21;3.40;99.90
8595;DHT22;4335;48.860;9.198;2023-02-15T09:24:51;3.40;99.90
8595;DHT22;4335;48.860;9.198;2023-02-15T09:27:20;3.40;99.90
8595;DHT22;4335;48.860;9.198;2023-02-15T09:29:47;3.50;99.90
8595;DHT22;4335;48.860;9.198;2023-02-15T09:32:14;3.60;99.90
8595;DHT22;4335;48.860;9.198;2023-02-15T09:34:44;3.60;99.90
8595;DHT22;4335;48.860;9.198;2023-02-15T09:37:10;3.70;99.90
8595;DHT22;4335;48.860;9.198;2023-02-15T09:39:41;3.90;99.90
8595;DHT22;4335;48.860;9.198;2023-02-15T09:45:26;4.10;99.90
8595;DHT22;4335;48.860;9.198;2023-02-15T09:51:06;4.10;99.90
8595;DHT22;4335;48.860;9.198;2023-02-15T09:53:49;4.00;99.90
8595;DHT22;4335;48.860;9.198;2023-02-15T09:56:25;3.90;99.90
8595;DHT22;4335;48.860;9.198;2023-02-15T09:59:02;4.00;99.90
8595;DHT22;4335;48.860;9.198;2023-02-15T10:01:40;4.10;99.90
8595;DHT22;4335;48.860;9.198;2023-02-15T10:04:24;4.00;99.90
8595;DHT22;4335;48.860;9.198;2023-02-15T10:07:07;4.40;99.90
8595;DHT22;4335;48.860;9.198;2023-02-15T10:09:50;4.50;99.90
8595;DHT22;4335;48.860;9.198;2023-02-15T10:12:40;4.60;99.90
8595;DHT22;4335;48.860;9.198;2023-02-15T10:15:39;4.60;99.90
8595;DHT22;4335;48.860;9.198;2023-02-15T10:18:24;4.80;99.90
8595;DHT22;4335;48.860;9.198;2023-02-15T10:21:00;4.90;99.90
8595;DHT22;4335;48.860;9.198;2023-02-15T10:23:53;5.00;99.90
8595;DHT22;4335;48.860;9.198;2023-02-15T10:26:30;5.20;99.90
8595;DHT22;4335;48.860;9.198;2023-02-15T10:29:04;5.80;99.90
8595;DHT22;4335;48.860;9.198;2023-02-15T10:31:36;7.70;99.90
8595;DHT22;4335;48.860;9.198;2023-02-15T10:34:14;10.10;99.90
8595;DHT22;4335;48.860;9.198;2023-02-15T10:36:58;12.60;99.90
8595;DHT22;4335;48.860;9.198;2023-02-15T10:39:37;14.90;99.90
8595;DHT22;4335;48.860;9.198;2023-02-15T10:42:12;16.60;97.60
8595;DHT22;4335;48.860;9.198;2023-02-15T10:44:49;17.90;91.90
8595;DHT22;4335;48.860;9.198;2023-02-15T10:47:29;18.90;85.10
8595;DHT22;4335;48.860;9.198;2023-02-15T10:50:10;19.30;80.20
8595;DHT22;4335;48.860;9.198;2023-02-15T10:52:50;19.10;77.30
8595;DHT22;4335;48.860;9.198;2023-02-15T10:55:30;20.10;74.80
8595;DHT22;4335;48.860;9.198;2023-02-15T10:58:07;21.10;71.20
8595;DHT22;4335;48.860;9.198;2023-02-15T11:00:46;22.30;65.50
8595;DHT22;4335;48.860;9.198;2023-02-15T11:03:34;23.00;60.90
8595;DHT22;4335;48.860;9.198;2023-02-15T11:06:05;23.60;58.20
8595;DHT22;4335;48.860;9.198;2023-02-15T11:08:39;23.80;56.10
8595;DHT22;4335;48.860;9.198;2023-02-15T11:11:09;22.90;54.70
8595;DHT22;4335;48.860;9.198;2023-02-15T11:13:40;20.90;55.40
8595;DHT22;4335;48.860;9.198;2023-02-15T11:16:15;18.20;58.40
8595;DHT22;4335;48.860;9.198;2023-02-15T11:18:46;16.00;63.00
8595;DHT22;4335;48.860;9.198;2023-02-15T11:21:21;14.00;69.90
8595;DHT22;4335;48.860;9.198;2023-02-15T11:23:49;12.40;77.80
8595;DHT22;4335;48.860;9.198;2023-02-15T11:26:20;11.30;87.70
8595;DHT22;4335;48.860;9.198;2023-02-15T11:28:52;10.40;93.80
8595;DHT22;4335;48.860;9.198;2023-02-15T11:31:26;9.90;98.60
8595;DHT22;4335;48.860;9.198;2023-02-15T11:33:58;9.40;99.90
8595;DHT22;4335;48.860;9.198;2023-02-15T11:36:28;8.90;99.90
8595;DHT22;4335;48.860;9.198;2023-02-15T11:39:01;8.30;99.90
8595;DHT22;4335;48.860;9.198;2023-02-15T11:41:34;7.90;99.90
8595;DHT22;4335;48.860;9.198;2023-02-15T11:44:06;7.60;99.90
8595;DHT22;4335;48.860;9.198;2023-02-15T11:46:34;7.10;99.90
8595;DHT22;4335;48.860;9.198;2023-02-15T11:49:00;6.90;99.90
8595;DHT22;4335;48.860;9.198;2023-02-15T11:51:29;6.70;99.90
8595;DHT22;4335;48.860;9.198;2023-02-15T11:53:56;6.60;99.90
8595;DHT22;4335;48.860;9.198;2023-02-15T11:56:24;6.40;99.90
8595;DHT22;4335;48.860;9.198;2023-02-15T11:58:55;6.30;99.90
8595;DHT22;4335;48.860;9.198;2023-02-15T12:01:32;6.20;99.90
8595;DHT22;4335;48.860;9.198;2023-02-15T12:04:06;6.10;99.90
8595;DHT22;4335;48.860;9.198;2023-02-15T12:06:43;6.10;99.90
8595;DHT22;4335;48.860;9.198;2023-02-15T12:09:20;5.90;99.90
8595;DHT22;4335;48.860;9.198;2023-02-15T12:11:50;6.00;99.90
8595;DHT22;4335;48.860;9.198;2023-02-15T12:14:16;5.90;99.90
8595;DHT22;4335;48.860;9.198;2023-02-15T12:16:45;5.90;99.90
8595;DHT22;4335;48.860;9.198;2023-02-15T12:19:29;5.80;99.90
8595;DHT22;4335;48.860;9.198;2023-02-15T12:21:58;5.90;99.90
8595;DHT22;4335;48.860;9.198;2023-02-15T12:24:28;5.90;99.90
8595;DHT22;4335;48.860;9.198;2023-02-15T12:26:58;5.90;99.90
8595;DHT22;4335;48.860;9.198;2023-02-15T12:29:31;5.80;99.90
8595;DHT22;4335;48.860;9.198;2023-02-15T12:32:01;5.80;99.90
8595;DHT22;4335;48.860;9.198;2023-02-15T12:34:37;5.80;99.90
8595;DHT22;4335;48.860;9.198;2023-02-15T12:37:11;5.70;99.90
8595;DHT22;4335;48.860;9.198;2023-02-15T12:39:55;5.60;99.90
8595;DHT22;4335;48.860;9.198;2023-02-15T12:42:22;5.60;99.90
8595;DHT22;4335;48.860;9.198;2023-02-15T12:45:01;5.60;99.90
8595;DHT22;4335;48.860;9.198;2023-02-15T12:47:30;5.70;99.90
8595;DHT22;4335;48.860;9.198;2023-02-15T12:50:12;5.50;99.90
8595;DHT22;4335;48.860;9.198;2023-02-15T12:52:44;5.60;99.90
8595;DHT22;4335;48.860;9.198;2023-02-15T12:55:19;5.50;99.90
8595;DHT22;4335;48.860;9.198;2023-02-15T12:57:46;5.50;99.90
8595;DHT22;4335;48.860;9.198;2023-02-15T13:00:27;5.60;99.90
8595;DHT22;4335;48.860;9.198;2023-02-15T13:02:58;5.60;99.90
8595;DHT22;4335;48.860;9.198;2023-02-15T13:05:31;5.60;99.90
8595;DHT22;4335;48.860;9.198;2023-02-15T13:08:00;5.70;99.90
8595;DHT22;4335;48.860;9.198;2023-02-15T13:10:33;5.70;99.90
8595;DHT22;4335;48.860;9.198;2023-02-15T13:13:02;5.80;99.90
8595;DHT22;4335;48.860;9.198;2023-02-15T13:15:36;5.80;99.90
8595;DHT22;4335;48.860;9.198;2023-02-15T13:18:05;5.90;99.90
8595;DHT22;4335;48.860;9.198;2023-02-15T13:20:38;5.90;99.90
8595;DHT22;4335;48.860;9.198;2023-02-15T13:23:13;6.00;99.90
8595;DHT22;4335;48.860;9.198;2023-02-15T13:25:45;6.00;99.90
8595;DHT22;4335;48.860;9.198;2023-02-15T13:28:21;6.00;99.90
8595;DHT22;4335;48.860;9.198;2023-02-15T13:30:52;6.10;99.90
8595;DHT22;4335;48.860;9.198;2023-02-15T13:33:23;6.10;99.90
8595;DHT22;4335;48.860;9.198;2023-02-15T13:36:02;6.20;99.90
8595;DHT22;4335;48.860;9.198;2023-02-15T13:38:55;6.20;99.90
8595;DHT22;4335;48.860;9.198;2023-02-15T13:41:26;6.20;99.90
8595;DHT22;4335;48.860;9.198;2023-02-15T13:44:03;6.20;99.90
8595;DHT22;4335;48.860;9.198;2023-02-15T13:46:54;6.40;99.90
8595;DHT22;4335;48.860;9.198;2023-02-15T13:49:37;6.30;99.90
8595;DHT22;4335;48.860;9.198;2023-02-15T13:52:18;6.40;99.90
8595;DHT22;4335;48.860;9.198;2023-02-15T13:54:59;6.40;99.90
8595;DHT22;4335;48.860;9.198;2023-02-15T13:57:49;6.50;99.90
8595;DHT22;4335;48.860;9.198;2023-02-15T14:00:24;6.50;99.90
8595;DHT22;4335;48.860;9.198;2023-02-15T14:03:19;6.60;99.90
8595;DHT22;4335;48.860;9.198;2023-02-15T14:09:01;6.70;99.90
8595;DHT22;4335;48.860;9.198;2023-02-15T14:11:37;6.70;99.90
8595;DHT22;4335;48.860;9.198;2023-02-15T14:14:30;6.80;99.90
8595;DHT22;4335;48.860;9.198;2023-02-15T14:17:04;6.80;99.90
8595;DHT22;4335;48.860;9.198;2023-02-15T14:19:37;6.90;99.90
8595;DHT22;4335;48.860;9.198;2023-02-15T14:22:12;6.90;99.90
8595;DHT22;4335;48.860;9.198;2023-02-15T14:24:51;7.00;99.90
8595;DHT22;4335;48.860;9.198;2023-02-15T14:27:41;7.00;99.90
8595;DHT22;4335;48.860;9.198;2023-02-15T14:30:18;7.10;99.90
8595;DHT22;4335;48.860;9.198;2023-02-15T14:32:48;7.10;99.90
8595;DHT22;4335;48.860;9.198;2023-02-15T14:35:18;7.10;99.90
8595;DHT22;4335;48.860;9.198;2023-02-15T14:37:49;7.20;99.90
8595;DHT22;4335;48.860;9.198;2023-02-15T14:40:28;7.30;99.90
8595;DHT22;4335;48.860;9.198;2023-02-15T14:43:23;7.30;99.90
8595;DHT22;4335;48.860;9.198;2023-02-15T14:45:53;7.30;99.90
8595;DHT22;4335;48.860;9.198;2023-02-15T14:48:24;7.30;99.90
8595;DHT22;4335;48.860;9.198;2023-02-15T14:50:52;7.40;99.90
8595;DHT22;4335;48.860;9.198;2023-02-15T14:53:36;7.40;99.90
8595;DHT22;4335;48.860;9.198;2023-02-15T14:56:20;7.40;99.90
8595;DHT22;4335;48.860;9.198;2023-02-15T14:59:14;7.50;99.90
8595;DHT22;4335;48.860;9.198;2023-02-15T15:02:04;7.50;99.90
8595;DHT22;4335;48.860;9.198;2023-02-15T15:04:38;7.60;99.90
8595;DHT22;4335;48.860;9.198;2023-02-15T15:07:14;7.60;99.90
8595;DHT22;4335;48.860;9.198;2023-02-15T15:09:46;7.60;99.90
8595;DHT22;4335;48.860;9.198;2023-02-15T15:12:37;7.70;99.90
8595;DHT22;4335;48.860;9.198;2023-02-15T15:15:05;7.70;99.90
8595;DHT22;4335;48.860;9.198;2023-02-15T15:17:54;7.70;99.90
8595;DHT22;4335;48.860;9.198;2023-02-15T15:20:46;7.70;99.90
8595;DHT22;4335;48.860;9.198;2023-02-15T15:23:43;7.80;99.90
8595;DHT22;4335;48.860;9.198;2023-02-15T15:26:27;7.80;99.90
8595;DHT22;4335;48.860;9.198;2023-02-15T15:29:00;7.80;99.90
8595;DHT22;4335;48.860;9.198;2023-02-15T15:31:46;7.80;99.90
8595;DHT22;4335;48.860;9.198;2023-02-15T15:34:27;7.90;99.90
8595;DHT22;4335;48.860;9.198;2023-02-15T15:40:32;7.90;99.90
8595;DHT22;4335;48.860;9.198;2023-02-15T15:49:56;7.90;99.90
8595;DHT22;4335;48.860;9.198;2023-02-15T15:52:24;7.90;99.90
8595;DHT22;4335;48.860;9.198;2023-02-15T15:54:57;7.80;99.90
8595;DHT22;4335;48.860;9.198;2023-02-15T15:57:34;7.80;99.90
8595;DHT22;4335;48.860;9.198;2023-02-15T16:00:15;7.70;99.90
8595;DHT22;4335;48.860;9.198;2023-02-15T16:02:55;7.70;99.90
8595;DHT22;4335;48.860;9.198;2023-02-15T16:05:22;7.60;99.90
8595;DHT22;4335;48.860;9.198;2023-02-15T16:07:49;7.60;99.90
8595;DHT22;4335;48.860;9.198;2023-02-15T16:10:24;7.50;99.90
8595;DHT22;4335;48.860;9.198;2023-02-15T16:12:54;7.50;99.90
8595;DHT22;4335;48.860;9.198;2023-02-15T16:15:23;7.40;99.90
8595;DHT22;4335;48.860;9.198;2023-02-15T16:17:52;7.30;99.90
8595;DHT22;4335;48.860;9.198;2023-02-15T16:20:23;7.30;99.90
8595;DHT22;4335;48.860;9.198;2023-02-15T16:22:59;7.20;99.90
8595;DHT22;4335;48.860;9.198;2023-02-15T16:25:38;7.20;99.90
8595;DHT22;4335;48.860;9.198;2023-02-15T16:28:11;7.10;99.90
8595;DHT22;4335;48.860;9.198;2023-02-15T16:30:44;7.00;99.90
8595;DHT22;4335;48.860;9.198;2023-02-15T16:33:11;6.90;99.90
8595;DHT22;4335;48.860;9.198;2023-02-15T16:35:54;6.90;99.90
8595;DHT22;4335;48.860;9.198;2023-02-15T16:38:45;6.80;99.90
8595;DHT22;4335;48.860;9.198;2023-02-15T16:41:24;6.80;99.90
8595;DHT22;4335;48.860;9.198;2023-02-15T16:43:53;6.70;99.90
8595;DHT22;4335;48.860;9.198;2023-02-15T16:46:23;6.70;99.90
8595;DHT22;4335;48.860;9.198;2023-02-15T16:48:56;6.60;99.90
8595;DHT22;4335;48.860;9.198;2023-02-15T16:51:28;6.60;99.90
8595;DHT22;4335;48.860;9.198;2023-02-15T16:53:57;6.50;99.90
8595;DHT22;4335;48.860;9.198;2023-02-15T16:56:32;6.40;99.90
8595;DHT22;4335;48.860;9.198;2023-02-15T16:58:59;6.30;99.90
8595;DHT22;4335;48.860;9.198;2023-02-15T17:01:29;6.20;99.90
8595;DHT22;4335;48.860;9.198;2023-02-15T17:04:26;6.20;99.90
8595;DHT22;4335;48.860;9.198;2023-02-15T17:07:03;6.10;99.90
8595;DHT22;4335;48.860;9.198;2023-02-15T17:09:31;6.00;99.90
8595;DHT22;4335;48.860;9.198;2023-02-15T17:11:59;6.00;99.90